createdAt,value
2022-12-17T00:01:28.602Z,47.20
2022-12-17T00:06:51.968Z,47.28
2022-12-17T00:12:12.340Z,47.30
2022-12-17T00:17:32.791Z,49.72
2022-12-17T00:22:53.300Z,50.92
2022-12-17T00:28:13.706Z,50.25
2022-12-17T00:33:34.462Z,49.38
2022-12-17T00:39:08.809Z,47.65
2022-12-17T00:44:29.343Z,50.38
2022-12-17T00:49:49.816Z,46.75
2022-12-17T00:55:10.251Z,47.08
2022-12-17T01:00:31.160Z,45.17
2022-12-17T01:05:52.728Z,44.53
2022-12-17T01:11:22.875Z,45.50
2022-12-17T01:16:43.307Z,43.40
2022-12-17T01:22:04.662Z,41.30
2022-12-17T01:27:25.540Z,42.60
2022-12-17T01:32:45.843Z,42.50
2022-12-17T01:38:06.094Z,43.83
2022-12-17T01:43:31.707Z,41.58
2022-12-17T01:49:05.495Z,42.08
2022-12-17T01:54:25.879Z,41.55
2022-12-17T02:00:20.193Z,42.47
2022-12-17T02:05:48.055Z,42.03
2022-12-17T02:11:23.537Z,42.20
2022-12-17T02:16:51.401Z,41.50
2022-12-17T02:22:16.816Z,41.78
2022-12-17T02:27:37.802Z,42.15
2022-12-17T02:33:01.149Z,40.80
2022-12-17T02:43:56.139Z,42.50
2022-12-17T02:49:16.502Z,41.28
2022-12-17T02:54:37.792Z,41.42
2022-12-17T02:59:58.875Z,41.08
2022-12-17T03:05:43.853Z,42.50
2022-12-17T03:11:00.754Z,40.88
2022-12-17T03:16:37.217Z,42.25
2022-12-17T03:21:58.231Z,42.45
2022-12-17T03:27:19.053Z,44.80
2022-12-17T03:32:39.402Z,41.85
2022-12-17T03:37:59.804Z,43.60
2022-12-17T03:43:27.426Z,43.08
2022-12-17T03:48:47.648Z,43.97
2022-12-17T03:54:08.078Z,42.42
2022-12-17T03:59:28.657Z,42.67
2022-12-17T04:04:49.168Z,41.85
2022-12-17T04:10:09.423Z,43.00
2022-12-17T04:15:29.852Z,42.45
2022-12-17T04:20:50.168Z,41.90
2022-12-17T04:26:10.516Z,42.90
2022-12-17T04:31:30.738Z,41.45
2022-12-17T04:36:51.144Z,39.65
2022-12-17T04:42:11.567Z,39.47
2022-12-17T04:47:31.814Z,39.85
2022-12-17T04:52:52.063Z,39.05
2022-12-17T04:58:12.711Z,40.63
2022-12-17T05:03:35.866Z,38.55
2022-12-17T05:08:56.648Z,40.13
2022-12-17T05:14:16.964Z,40.03
2022-12-17T05:19:37.278Z,40.20
2022-12-17T05:24:57.789Z,40.75
2022-12-17T05:30:18.190Z,41.10
2022-12-17T05:35:38.412Z,39.35
2022-12-17T05:40:58.706Z,39.55
2022-12-17T05:46:19.173Z,39.15
2022-12-17T05:51:40.585Z,38.60
2022-12-17T05:57:00.850Z,39.00
2022-12-17T06:02:21.230Z,38.75
2022-12-17T06:07:41.877Z,42.08
2022-12-17T06:13:02.280Z,43.00
2022-12-17T06:18:22.699Z,42.15
2022-12-17T06:23:43.064Z,43.13
2022-12-17T06:29:03.732Z,41.50
2022-12-17T06:34:24.064Z,43.13
2022-12-17T06:39:44.440Z,41.25
2022-12-17T06:45:04.699Z,40.55
2022-12-17T06:50:25.569Z,40.13
2022-12-17T06:55:46.396Z,41.55
2022-12-17T07:01:07.078Z,40.83
2022-12-17T07:06:27.437Z,41.22
2022-12-17T07:11:48.062Z,39.92
2022-12-17T07:17:08.510Z,40.47
2022-12-17T07:22:29.160Z,38.47
2022-12-17T07:27:49.636Z,39.10
2022-12-17T07:33:18.155Z,39.60
2022-12-17T07:38:38.645Z,41.97
2022-12-17T07:43:59.502Z,39.97
2022-12-17T07:49:25.379Z,41.60
2022-12-17T07:54:46.178Z,40.63
2022-12-17T08:00:06.508Z,41.45
2022-12-17T08:05:27.379Z,38.50
2022-12-17T08:10:52.167Z,39.15
2022-12-17T08:16:13.173Z,39.10
2022-12-17T08:21:33.782Z,38.25
2022-12-17T08:26:53.931Z,38.58
2022-12-17T08:32:14.252Z,39.13
2022-12-17T08:37:34.819Z,38.20
2022-12-17T08:42:55.599Z,36.25
2022-12-17T08:48:23.934Z,37.20
2022-12-17T08:53:44.399Z,37.95
2022-12-17T08:59:04.583Z,38.92
2022-12-17T09:04:24.852Z,40.08
2022-12-17T09:09:45.119Z,38.45
2022-12-17T09:15:05.292Z,39.17
2022-12-17T09:20:29.496Z,38.55
2022-12-17T09:25:53.766Z,40.17
2022-12-17T09:31:19.513Z,39.70
2022-12-17T09:36:39.942Z,42.55
2022-12-17T09:42:06.540Z,42.53
2022-12-17T09:47:47.603Z,42.83
2022-12-17T09:53:08.639Z,37.33
2022-12-17T09:58:48.708Z,38.53
2022-12-17T10:04:08.983Z,38.85
2022-12-17T10:09:35.565Z,40.80
2022-12-17T10:14:55.816Z,39.58
2022-12-17T10:20:17.654Z,42.05
2022-12-17T10:25:41.104Z,41.25
2022-12-17T10:31:02.227Z,41.92
2022-12-17T10:36:24.587Z,40.47
2022-12-17T10:41:53.177Z,41.42
2022-12-17T10:47:18.328Z,41.17
2022-12-17T10:52:51.014Z,41.90
2022-12-17T10:58:11.373Z,39.17
2022-12-17T11:03:48.809Z,40.17
2022-12-17T11:09:09.622Z,38.22
2022-12-17T11:14:32.063Z,40.35
2022-12-17T11:20:12.781Z,45.95
2022-12-17T11:25:49.296Z,44.30
2022-12-17T11:31:20.850Z,41.63
2022-12-17T11:36:52.271Z,39.95
2022-12-17T11:42:30.144Z,40.92
2022-12-17T11:48:08.603Z,43.75
2022-12-17T11:53:41.151Z,45.08
2022-12-17T11:59:15.097Z,47.58
2022-12-17T12:10:34.288Z,49.70
2022-12-17T12:16:15.819Z,51.33
2022-12-17T12:22:17.931Z,50.80
2022-12-17T12:28:07.803Z,50.70
2022-12-17T12:33:39.984Z,51.05
2022-12-17T12:39:02.398Z,46.38
2022-12-17T12:44:34.988Z,44.83
2022-12-17T12:50:21.979Z,47.58
2022-12-17T12:55:42.329Z,44.75
2022-12-17T13:01:05.798Z,47.75
2022-12-17T13:06:08.035Z,46.17
2022-12-17T13:11:36.182Z,46.00
2022-12-17T13:16:52.365Z,44.10
2022-12-17T13:21:54.464Z,45.03
2022-12-17T13:26:56.484Z,45.00
2022-12-17T13:32:01.165Z,45.13
2022-12-17T13:37:17.842Z,45.53
2022-12-17T13:42:30.443Z,44.28
2022-12-17T13:47:35.250Z,44.15
2022-12-17T13:52:37.137Z,43.08
2022-12-17T13:57:45.490Z,43.92
2022-12-17T14:02:48.903Z,46.10
2022-12-17T14:13:05.430Z,45.22
2022-12-17T14:18:14.692Z,41.65
2022-12-17T14:23:27.212Z,43.20
2022-12-17T14:28:35.374Z,43.08
2022-12-17T14:33:37.915Z,45.00
2022-12-17T14:38:42.034Z,42.33
2022-12-17T14:43:45.786Z,46.30
2022-12-17T14:49:04.814Z,48.08
2022-12-17T14:54:06.631Z,42.47
2022-12-17T14:59:35.971Z,41.55
2022-12-17T15:04:39.303Z,45.47
2022-12-17T15:09:42.101Z,47.75
2022-12-17T15:14:43.975Z,44.90
2022-12-17T15:19:50.195Z,45.08
2022-12-17T15:24:56.156Z,47.45
2022-12-17T15:29:58.006Z,48.22
2022-12-17T15:34:59.958Z,47.22
2022-12-17T15:40:02.424Z,45.38
2022-12-17T15:45:05.012Z,48.47
2022-12-17T15:50:07.592Z,46.20
2022-12-17T15:55:14.371Z,45.20
2022-12-17T16:00:18.602Z,43.97
2022-12-17T16:05:22.019Z,43.22
2022-12-17T16:10:23.912Z,42.10
2022-12-17T16:15:25.893Z,43.78
2022-12-17T16:20:29.941Z,44.80
2022-12-17T16:25:31.898Z,42.85
2022-12-17T16:30:36.900Z,44.95
2022-12-17T16:35:39.100Z,48.95
2022-12-17T16:40:43.228Z,52.83
2022-12-17T16:45:50.540Z,53.28
2022-12-17T16:50:52.391Z,56.38
2022-12-17T16:55:54.302Z,51.92
2022-12-17T17:00:56.267Z,54.42
2022-12-17T17:06:03.713Z,53.63
2022-12-17T17:11:25.079Z,51.22
2022-12-17T17:16:27.284Z,51.63
2022-12-17T17:21:30.139Z,51.15
2022-12-17T17:26:33.533Z,50.60
2022-12-17T17:36:57.275Z,47.25
2022-12-17T17:41:59.304Z,44.47
2022-12-17T17:47:01.529Z,44.65
2022-12-17T17:52:11.611Z,44.63
2022-12-17T17:57:14.057Z,42.30
2022-12-17T18:02:16.071Z,42.75
2022-12-17T18:07:26.607Z,43.45
2022-12-17T18:12:47.407Z,41.40
2022-12-17T18:17:51.603Z,40.05
2022-12-17T18:22:53.739Z,39.10
2022-12-17T18:27:57.511Z,40.25
2022-12-17T18:32:59.351Z,37.88
2022-12-17T18:38:01.617Z,38.90
2022-12-17T18:43:22.359Z,40.53
2022-12-17T18:48:24.175Z,38.97
2022-12-17T18:53:26.127Z,37.58
2022-12-17T18:58:27.979Z,37.42
2022-12-17T19:03:29.867Z,35.90
2022-12-17T19:08:35.323Z,35.60
2022-12-17T19:13:37.628Z,34.72
2022-12-17T19:18:40.397Z,35.17
2022-12-17T19:23:42.692Z,33.63
2022-12-17T19:28:47.789Z,34.55
2022-12-17T19:33:49.787Z,33.65
2022-12-17T19:38:56.496Z,32.40
2022-12-17T19:44:00.955Z,34.28
2022-12-17T19:49:04.378Z,35.45
2022-12-17T19:59:11.877Z,37.20
2022-12-17T20:04:15.856Z,41.10
2022-12-17T20:09:17.793Z,40.67
2022-12-17T20:14:29.452Z,42.70
2022-12-17T20:19:33.135Z,46.30
2022-12-17T20:24:37.158Z,47.10
2022-12-17T20:29:39.223Z,47.92
2022-12-17T20:34:41.124Z,45.97
2022-12-17T20:39:43.557Z,46.80
2022-12-17T20:44:51.581Z,45.30
2022-12-17T20:49:55.187Z,43.40
2022-12-17T20:54:57.126Z,46.13
2022-12-17T20:59:59.037Z,44.95
2022-12-17T21:05:01.016Z,44.78
2022-12-17T21:10:03.023Z,45.22
2022-12-17T21:15:05.105Z,44.15
2022-12-17T21:20:10.556Z,43.72
2022-12-17T21:25:14.196Z,43.95
2022-12-17T21:30:16.137Z,41.00
2022-12-17T21:35:18.064Z,42.00
2022-12-17T21:40:20.243Z,41.58
2022-12-17T21:45:22.577Z,40.60
2022-12-17T21:50:24.649Z,41.95
2022-12-17T21:55:27.231Z,40.58
2022-12-17T22:00:29.197Z,39.97
2022-12-17T22:05:31.412Z,41.50
2022-12-17T22:10:43.472Z,40.97
2022-12-17T22:15:54.763Z,40.78
2022-12-17T22:21:00.920Z,39.10
2022-12-17T22:26:02.742Z,39.45
2022-12-17T22:31:32.782Z,38.80
2022-12-17T22:38:17.887Z,37.00
2022-12-17T22:44:49.373Z,37.45
2022-12-17T22:47:38.182Z,37.20
2022-12-17T22:52:40.097Z,35.85
2022-12-17T22:57:42.424Z,37.55
2022-12-17T23:02:44.407Z,39.05
2022-12-17T23:07:46.411Z,39.05
2022-12-17T23:12:51.682Z,38.97
2022-12-17T23:17:56.019Z,38.90
2022-12-17T23:22:58.911Z,39.03
2022-12-17T23:28:00.805Z,29.80
2022-12-17T23:33:04.196Z,37.08
2022-12-17T23:38:06.080Z,36.47
2022-12-17T23:43:10.632Z,36.60
2022-12-17T23:48:14.965Z,35.25
2022-12-17T23:53:16.833Z,34.28
2022-12-17T23:58:19.048Z,34.47
